createdAt,value
2018-06-03T00:00:51.435Z,93.30
2018-06-03T00:03:21.312Z,93.10
2018-06-03T00:05:50.365Z,93.10
2018-06-03T00:08:19.417Z,93.00
2018-06-03T00:10:48.524Z,92.80
2018-06-03T00:13:17.589Z,92.90
2018-06-03T00:16:12.090Z,92.90
2018-06-03T00:18:41.181Z,93.00
2018-06-03T00:21:40.798Z,93.10
2018-06-03T00:24:09.872Z,93.10
2018-06-03T00:26:38.964Z,93.10
2018-06-03T00:29:08.090Z,93.10
2018-06-03T00:31:37.206Z,93.00
2018-06-03T00:34:06.245Z,93.00
2018-06-03T00:36:44.892Z,93.10
2018-06-03T00:39:13.999Z,93.20
2018-06-03T00:41:43.070Z,93.30
2018-06-03T00:44:12.110Z,93.30
2018-06-03T00:46:41.948Z,93.40
2018-06-03T00:49:10.998Z,93.40
2018-06-03T00:51:40.116Z,93.40
2018-06-03T00:54:09.134Z,93.40
2018-06-03T00:56:55.980Z,93.50
2018-06-03T00:59:25.817Z,93.30
2018-06-03T01:01:54.871Z,93.30
2018-06-03T01:04:23.962Z,93.60
2018-06-03T01:06:53.005Z,93.40
2018-06-03T01:09:22.097Z,93.40
2018-06-03T01:11:51.133Z,93.50
2018-06-03T01:14:20.236Z,93.40
2018-06-03T01:16:49.343Z,93.50
2018-06-03T01:19:18.392Z,93.40
2018-06-03T01:22:25.374Z,93.60
2018-06-03T01:24:55.643Z,93.60
2018-06-03T01:27:25.868Z,93.70
2018-06-03T01:29:56.116Z,93.60
2018-06-03T01:32:26.355Z,93.60
2018-06-03T01:34:56.653Z,93.50
2018-06-03T01:37:26.961Z,93.60
2018-06-03T01:39:57.310Z,93.50
2018-06-03T01:42:27.627Z,93.40
2018-06-03T01:44:57.993Z,93.30
2018-06-03T01:47:28.329Z,93.40
2018-06-03T01:49:58.668Z,93.50
2018-06-03T01:52:28.973Z,93.60
2018-06-03T01:54:59.225Z,93.40
2018-06-03T01:57:29.488Z,93.50
2018-06-03T01:59:59.800Z,93.50
2018-06-03T02:02:30.067Z,93.50
2018-06-03T02:05:00.356Z,93.70
2018-06-03T02:07:30.584Z,93.80
2018-06-03T02:12:30.915Z,94.00
2018-06-03T02:15:01.267Z,93.90
2018-06-03T02:17:31.594Z,93.90
2018-06-03T02:20:01.925Z,93.90
2018-06-03T02:22:32.245Z,93.90
2018-06-03T02:25:02.583Z,93.90
2018-06-03T02:27:32.886Z,93.60
2018-06-03T02:30:03.194Z,93.50
2018-06-03T02:32:33.518Z,93.60
2018-06-03T02:35:03.908Z,93.60
2018-06-03T02:37:34.241Z,93.90
2018-06-03T02:40:04.605Z,93.70
2018-06-03T02:42:34.917Z,93.70
2018-06-03T02:45:05.284Z,93.70
2018-06-03T02:47:35.606Z,93.60
2018-06-03T02:50:05.973Z,94.00
2018-06-03T02:52:36.276Z,93.80
2018-06-03T02:55:06.664Z,93.80
2018-06-03T02:57:36.976Z,93.70
2018-06-03T03:00:07.320Z,93.70
2018-06-03T03:02:37.614Z,93.60
2018-06-03T03:07:37.824Z,93.60
2018-06-03T03:10:08.183Z,93.80
2018-06-03T03:15:08.402Z,93.60
2018-06-03T03:17:38.716Z,93.70
2018-06-03T03:20:08.993Z,93.70
2018-06-03T03:22:39.340Z,93.70
2018-06-03T03:25:09.645Z,93.60
2018-06-03T03:27:39.950Z,93.60
2018-06-03T03:30:10.223Z,93.60
2018-06-03T03:32:40.537Z,93.60
2018-06-03T03:35:10.831Z,93.60
2018-06-03T03:37:41.193Z,93.60
2018-06-03T03:42:45.481Z,93.80
2018-06-03T03:45:15.742Z,93.60
2018-06-03T03:47:46.060Z,93.60
2018-06-03T03:50:16.352Z,93.50
2018-06-03T03:52:46.677Z,93.70
2018-06-03T03:55:16.960Z,93.90
2018-06-03T03:57:47.245Z,93.80
2018-06-03T04:00:17.510Z,93.80
2018-06-03T04:02:47.833Z,93.80
2018-06-03T04:05:18.117Z,93.90
2018-06-03T04:07:48.367Z,93.90
2018-06-03T04:10:18.689Z,93.80
2018-06-03T04:12:48.961Z,94.00
2018-06-03T04:15:19.285Z,93.60
2018-06-03T04:17:49.550Z,93.70
2018-06-03T04:20:19.842Z,93.80
2018-06-03T04:22:50.131Z,93.60
2018-06-03T04:25:20.415Z,93.60
2018-06-03T04:27:50.752Z,93.80
2018-06-03T04:30:21.048Z,93.70
2018-06-03T04:33:13.584Z,93.70
2018-06-03T04:35:43.883Z,93.60
2018-06-03T04:38:14.184Z,93.60
2018-06-03T04:40:44.443Z,93.40
2018-06-03T04:43:14.770Z,93.20
2018-06-03T04:45:45.056Z,93.20
2018-06-03T04:48:15.378Z,93.00
2018-06-03T04:50:45.647Z,92.90
2018-06-03T04:53:15.992Z,93.00
2018-06-03T04:55:46.305Z,92.90
2018-06-03T04:58:16.562Z,92.70
2018-06-03T05:00:46.886Z,92.70
2018-06-03T05:03:17.148Z,92.50
2018-06-03T05:05:47.453Z,92.40
2018-06-03T05:08:17.716Z,92.40
2018-06-03T05:10:48.058Z,92.30
2018-06-03T05:13:18.356Z,92.30
2018-06-03T05:15:48.677Z,92.30
2018-06-03T05:18:19.012Z,92.00
2018-06-03T05:20:49.298Z,92.30
2018-06-03T05:25:49.454Z,92.30
2018-06-03T05:28:19.719Z,92.40
2018-06-03T05:30:50.045Z,92.30
2018-06-03T05:33:20.408Z,92.20
2018-06-03T05:35:50.665Z,92.00
2018-06-03T05:38:20.989Z,91.90
2018-06-03T05:41:13.414Z,91.90
2018-06-03T05:43:43.921Z,91.90
2018-06-03T05:46:14.236Z,92.00
2018-06-03T05:48:44.880Z,91.80
2018-06-03T05:51:15.369Z,91.70
2018-06-03T05:53:45.845Z,91.50
2018-06-03T05:56:16.380Z,91.80
2018-06-03T05:58:46.665Z,91.40
2018-06-03T06:01:16.995Z,91.50
2018-06-03T06:03:47.304Z,91.40
2018-06-03T06:06:17.634Z,91.00
2018-06-03T06:08:47.904Z,91.00
2018-06-03T06:11:18.504Z,91.30
2018-06-03T06:13:48.877Z,91.30
2018-06-03T06:16:19.138Z,91.60
2018-06-03T06:18:49.412Z,91.30
2018-06-03T06:21:19.810Z,91.30
2018-06-03T06:26:20.073Z,91.00
2018-06-03T06:28:50.396Z,90.80
2018-06-03T06:31:20.701Z,91.00
2018-06-03T06:33:51.049Z,91.10
2018-06-03T06:36:21.417Z,90.80
2018-06-03T06:38:51.647Z,90.70
2018-06-03T06:41:21.980Z,90.80
2018-06-03T06:43:52.317Z,90.40
2018-06-03T06:46:22.685Z,90.40
2018-06-03T06:48:52.962Z,90.20
2018-06-03T06:51:23.296Z,90.40
2018-06-03T06:53:53.649Z,90.30
2018-06-03T06:56:23.949Z,90.20
2018-06-03T06:58:54.275Z,89.20
2018-06-03T07:01:24.569Z,88.60
2018-06-03T07:03:54.892Z,87.80
2018-06-03T07:06:25.247Z,87.00
2018-06-03T07:08:55.532Z,86.00
2018-06-03T07:11:25.885Z,85.00
2018-06-03T07:13:56.247Z,83.20
2018-06-03T07:16:26.569Z,83.20
2018-06-03T07:18:56.849Z,83.70
2018-06-03T07:21:27.186Z,84.70
2018-06-03T07:26:27.399Z,83.00
2018-06-03T07:28:57.720Z,82.30
2018-06-03T07:31:28.005Z,78.20
2018-06-03T07:33:58.357Z,76.40
2018-06-03T07:36:28.705Z,76.30
2018-06-03T07:38:59.035Z,75.10
2018-06-03T07:41:29.359Z,74.40
2018-06-03T07:43:59.673Z,75.10
2018-06-03T07:46:29.946Z,72.00
2018-06-03T07:49:00.282Z,69.30
2018-06-03T07:51:30.612Z,69.20
2018-06-03T07:54:00.925Z,71.40
2018-06-03T07:56:31.264Z,68.20
2018-06-03T07:59:01.556Z,69.60
2018-06-03T08:01:31.864Z,70.80
2018-06-03T08:04:02.169Z,71.90
2018-06-03T08:06:32.482Z,72.30
2018-06-03T08:09:02.780Z,67.20
2018-06-03T08:11:33.061Z,67.00
2018-06-03T08:14:03.366Z,68.60
2018-06-03T08:16:33.736Z,68.20
2018-06-03T08:19:04.111Z,68.50
2018-06-03T08:21:34.410Z,67.90
2018-06-03T08:24:04.761Z,66.60
2018-06-03T08:26:35.089Z,66.40
2018-06-03T08:29:05.437Z,63.60
2018-06-03T08:34:05.722Z,63.90
2018-06-03T08:36:36.040Z,66.10
2018-06-03T08:39:07.837Z,65.40
2018-06-03T08:41:38.157Z,66.70
2018-06-03T08:44:10.558Z,67.90
2018-06-03T08:46:40.902Z,66.10
2018-06-03T08:49:11.152Z,64.50
2018-06-03T08:51:41.474Z,63.60
2018-06-03T08:54:11.801Z,64.40
2018-06-03T08:56:42.064Z,63.70
2018-06-03T09:01:42.334Z,60.20
2018-06-03T09:04:12.672Z,61.30
2018-06-03T09:06:42.989Z,58.30
2018-06-03T09:09:13.776Z,58.70
2018-06-03T09:11:44.090Z,60.80
2018-06-03T09:14:14.421Z,59.70
2018-06-03T09:16:44.817Z,57.40
2018-06-03T09:19:15.132Z,58.10
2018-06-03T09:21:45.410Z,59.40
2018-06-03T09:29:15.584Z,56.80
2018-06-03T09:31:45.916Z,58.60
2018-06-03T09:34:16.247Z,59.50
2018-06-03T09:36:46.502Z,58.00
2018-06-03T09:39:16.849Z,57.20
2018-06-03T09:44:17.109Z,58.50
2018-06-03T09:46:47.400Z,55.40
2018-06-03T09:49:17.706Z,57.00
2018-06-03T09:51:48.031Z,56.40
2018-06-03T09:54:18.301Z,55.20
2018-06-03T09:56:48.639Z,54.80
2018-06-03T09:59:18.934Z,56.60
2018-06-03T10:04:19.212Z,56.40
2018-06-03T10:06:49.516Z,54.20
2018-06-03T10:09:19.929Z,52.00
2018-06-03T10:14:20.193Z,50.60
2018-06-03T10:16:50.521Z,47.50
2018-06-03T10:19:20.788Z,48.80
2018-06-03T10:21:51.149Z,51.20
2018-06-03T10:24:21.470Z,52.20
2018-06-03T10:26:51.891Z,49.60
2018-06-03T10:29:22.175Z,47.70
2018-06-03T10:31:52.501Z,49.00
2018-06-03T10:34:22.885Z,49.40
2018-06-03T10:36:53.195Z,50.80
2018-06-03T10:39:23.504Z,48.60
2018-06-03T10:44:23.732Z,44.50
2018-06-03T10:49:24.024Z,47.20
2018-06-03T10:51:54.353Z,47.50
2018-06-03T10:54:24.819Z,47.70
2018-06-03T10:59:25.747Z,48.80
2018-06-03T11:01:56.137Z,46.80
2018-06-03T11:04:26.445Z,46.40
2018-06-03T11:06:56.730Z,48.70
2018-06-03T11:09:27.062Z,50.50
2018-06-03T11:11:57.333Z,49.50
2018-06-03T11:14:27.678Z,48.80
2018-06-03T11:16:58.001Z,49.10
2018-06-03T11:19:28.348Z,49.70
2018-06-03T11:21:58.672Z,48.90
2018-06-03T11:24:28.956Z,50.60
2018-06-03T11:26:59.520Z,50.60
2018-06-03T11:29:29.849Z,48.50
2018-06-03T11:32:00.310Z,49.50
2018-06-03T11:34:30.647Z,50.60
2018-06-03T11:37:00.965Z,51.10
2018-06-03T11:39:31.276Z,52.50
2018-06-03T11:42:01.655Z,53.20
2018-06-03T11:47:02.101Z,55.30
2018-06-03T11:49:32.476Z,55.60
2018-06-03T11:57:04.200Z,57.40
2018-06-03T11:59:43.840Z,57.00
2018-06-03T12:02:17.459Z,58.40
2018-06-03T12:04:47.746Z,57.60
2018-06-03T12:07:18.100Z,56.90
2018-06-03T12:09:48.364Z,54.30
2018-06-03T12:12:18.674Z,54.00
2018-06-03T12:14:49.009Z,53.90
2018-06-03T12:17:19.321Z,51.60
2018-06-03T12:19:49.589Z,51.60
2018-06-03T12:22:19.881Z,54.30
2018-06-03T12:24:50.165Z,54.20
2018-06-03T12:27:20.438Z,54.10
2018-06-03T12:29:50.748Z,54.80
2018-06-03T12:32:21.061Z,54.30
2018-06-03T12:34:51.346Z,54.50
2018-06-03T12:37:21.670Z,55.30
2018-06-03T12:39:51.966Z,54.80
2018-06-03T12:44:53.322Z,51.70
2018-06-03T12:47:23.645Z,51.90
2018-06-03T12:49:53.961Z,52.10
2018-06-03T12:52:24.265Z,51.40
2018-06-03T12:54:54.599Z,51.60
2018-06-03T12:57:24.907Z,52.60
2018-06-03T12:59:55.216Z,51.90
2018-06-03T13:02:25.545Z,53.20
2018-06-03T13:04:55.840Z,52.60
2018-06-03T13:07:26.192Z,52.50
2018-06-03T13:09:56.517Z,53.50
2018-06-03T13:12:26.820Z,53.80
2018-06-03T13:14:57.095Z,55.00
2018-06-03T13:17:27.475Z,55.20
2018-06-03T13:19:57.709Z,55.50
2018-06-03T13:22:27.998Z,55.30
2018-06-03T13:24:58.317Z,55.10
2018-06-03T13:27:28.660Z,56.10
2018-06-03T13:29:58.988Z,55.10
2018-06-03T13:32:29.285Z,55.30
2018-06-03T13:34:59.577Z,54.60
2018-06-03T13:37:29.924Z,54.30
2018-06-03T13:40:00.227Z,54.40
2018-06-03T13:42:30.550Z,54.10
2018-06-03T13:45:00.879Z,52.50
2018-06-03T13:47:31.198Z,53.70
2018-06-03T13:50:01.452Z,53.30
2018-06-03T13:52:31.767Z,53.40
2018-06-03T13:55:02.022Z,52.90
2018-06-03T13:57:32.387Z,52.90
2018-06-03T14:00:02.732Z,53.30
2018-06-03T14:02:33.013Z,54.60
2018-06-03T14:05:03.318Z,55.00
2018-06-03T14:07:33.573Z,54.20
2018-06-03T14:10:03.889Z,53.20
2018-06-03T14:12:34.505Z,54.00
2018-06-03T14:15:04.850Z,54.60
2018-06-03T14:17:35.209Z,53.80
2018-06-03T14:20:05.513Z,53.80
2018-06-03T14:22:35.743Z,54.30
2018-06-03T14:25:06.079Z,53.80
2018-06-03T14:27:36.432Z,53.40
2018-06-03T14:30:06.844Z,54.70
2018-06-03T14:35:07.049Z,54.40
2018-06-03T14:37:37.514Z,54.10
2018-06-03T14:40:07.854Z,54.60
2018-06-03T14:42:38.213Z,54.50
2018-06-03T14:45:08.538Z,55.80
2018-06-03T14:47:38.863Z,55.30
2018-06-03T14:50:09.300Z,56.00
2018-06-03T14:52:39.757Z,54.80
2018-06-03T14:57:40.005Z,53.30
2018-06-03T15:00:10.265Z,51.80
2018-06-03T15:05:10.483Z,52.00
2018-06-03T15:07:40.775Z,51.90
2018-06-03T15:10:11.038Z,51.50
2018-06-03T15:12:41.609Z,52.30
2018-06-03T15:17:41.802Z,51.40
2018-06-03T15:20:12.145Z,51.40
2018-06-03T15:22:42.465Z,52.50
2018-06-03T15:25:12.733Z,51.40
2018-06-03T15:27:43.040Z,51.70
2018-06-03T15:30:13.377Z,50.90
2018-06-03T15:35:13.532Z,51.60
2018-06-03T15:37:43.856Z,50.50
2018-06-03T15:40:14.173Z,51.70
2018-06-03T15:45:14.409Z,50.60
2018-06-03T15:47:44.730Z,51.20
2018-06-03T15:50:15.077Z,50.10
2018-06-03T15:52:45.425Z,50.50
2018-06-03T15:55:15.708Z,51.00
2018-06-03T15:57:46.051Z,49.10
2018-06-03T16:00:16.368Z,48.00
2018-06-03T16:05:16.583Z,47.50
2018-06-03T16:07:46.860Z,47.50
2018-06-03T16:10:17.156Z,47.90
2018-06-03T16:15:17.642Z,49.00
2018-06-03T16:17:48.078Z,47.40
2018-06-03T16:20:18.348Z,45.50
2018-06-03T16:22:48.682Z,45.90
2018-06-03T16:27:48.893Z,42.30
2018-06-03T16:30:19.285Z,39.50
2018-06-03T16:32:49.644Z,38.20
2018-06-03T16:35:19.906Z,36.90
2018-06-03T16:37:50.300Z,36.80
2018-06-03T16:40:20.596Z,36.90
2018-06-03T16:42:50.842Z,37.20
2018-06-03T16:45:21.098Z,37.20
2018-06-03T16:47:51.535Z,36.60
2018-06-03T16:50:21.820Z,36.30
2018-06-03T16:55:22.008Z,35.70
2018-06-03T16:57:52.346Z,36.30
2018-06-03T17:00:22.704Z,37.10
2018-06-03T17:05:22.914Z,39.40
2018-06-03T17:07:53.198Z,40.40
2018-06-03T17:10:23.495Z,41.90
2018-06-03T17:15:24.003Z,42.90
2018-06-03T17:17:54.479Z,44.00
2018-06-03T17:20:24.817Z,44.90
2018-06-03T17:22:55.125Z,46.50
2018-06-03T17:25:25.462Z,47.60
2018-06-03T17:27:55.732Z,48.50
2018-06-03T17:30:26.045Z,50.00
2018-06-03T17:32:56.520Z,52.20
2018-06-03T17:35:27.140Z,53.30
2018-06-03T17:37:57.474Z,54.60
2018-06-03T17:40:27.785Z,54.90
2018-06-03T17:42:58.063Z,55.50
2018-06-03T17:45:28.717Z,56.50
2018-06-03T17:47:59.074Z,57.70
2018-06-03T17:50:29.367Z,58.30
2018-06-03T17:52:59.634Z,58.90
2018-06-03T17:55:30.324Z,59.40
2018-06-03T17:58:00.681Z,60.60
2018-06-03T18:00:31.002Z,61.40
2018-06-03T18:03:01.385Z,62.60
2018-06-03T18:05:31.727Z,63.80
2018-06-03T18:08:02.074Z,64.70
2018-06-03T18:10:32.423Z,65.80
2018-06-03T18:13:03.032Z,66.50
2018-06-03T18:15:33.336Z,67.50
2018-06-03T18:18:03.650Z,68.30
2018-06-03T18:20:33.963Z,68.90
2018-06-03T18:23:04.294Z,69.30
2018-06-03T18:25:34.557Z,69.80
2018-06-03T18:28:04.854Z,71.10
2018-06-03T18:30:35.133Z,71.90
2018-06-03T18:33:05.399Z,72.10
2018-06-03T18:38:05.568Z,73.70
2018-06-03T18:40:35.878Z,73.40
2018-06-03T18:43:06.396Z,74.30
2018-06-03T18:45:36.673Z,74.90
2018-06-03T18:48:07.066Z,75.50
2018-06-03T18:50:37.357Z,75.70
2018-06-03T18:55:37.600Z,77.70
2018-06-03T18:58:07.866Z,77.30
2018-06-03T19:00:38.134Z,77.50
2018-06-03T19:03:08.490Z,77.90
2018-06-03T19:05:38.759Z,78.30
2018-06-03T19:08:09.099Z,78.10
2018-06-03T19:10:39.520Z,78.70
2018-06-03T19:13:09.922Z,79.90
2018-06-03T19:15:40.260Z,79.30
2018-06-03T19:18:10.587Z,79.40
2018-06-03T19:20:40.864Z,79.40
2018-06-03T19:23:11.266Z,79.40
2018-06-03T19:28:11.449Z,79.30
2018-06-03T19:30:41.770Z,79.80
2018-06-03T19:33:12.965Z,80.10
2018-06-03T19:35:43.272Z,80.40
2018-06-03T19:38:13.593Z,80.40
2018-06-03T19:40:43.892Z,80.60
2018-06-03T19:43:14.313Z,80.90
2018-06-03T19:45:44.593Z,81.50
2018-06-03T19:48:14.844Z,81.70
2018-06-03T19:50:45.120Z,82.10
2018-06-03T19:53:15.420Z,82.50
2018-06-03T19:55:45.688Z,82.90
2018-06-03T19:58:16.037Z,82.70
2018-06-03T20:00:46.265Z,82.60
2018-06-03T20:03:16.544Z,82.60
2018-06-03T20:05:46.806Z,83.10
2018-06-03T20:08:17.103Z,83.00
2018-06-03T20:13:17.432Z,83.00
2018-06-03T20:15:47.786Z,83.00
2018-06-03T20:18:18.350Z,83.50
2018-06-03T20:20:48.680Z,83.60
2018-06-03T20:23:19.052Z,84.20
2018-06-03T20:28:19.261Z,84.10
2018-06-03T20:30:49.551Z,84.40
2018-06-03T20:33:19.864Z,84.60
2018-06-03T20:35:50.184Z,84.20
2018-06-03T20:38:20.590Z,84.80
2018-06-03T20:40:50.908Z,85.10
2018-06-03T20:45:51.239Z,84.60
2018-06-03T20:48:21.543Z,84.50
2018-06-03T20:50:51.838Z,85.00
2018-06-03T20:53:22.148Z,85.30
2018-06-03T20:55:52.444Z,85.80
2018-06-03T20:58:22.685Z,85.10
2018-06-03T21:00:52.936Z,85.00
2018-06-03T21:03:23.280Z,85.10
2018-06-03T21:05:53.565Z,85.00
2018-06-03T21:08:23.868Z,85.50
2018-06-03T21:13:24.300Z,86.70
2018-06-03T21:18:24.547Z,84.80
2018-06-03T21:20:54.795Z,85.20
2018-06-03T21:23:25.071Z,85.80
2018-06-03T21:25:55.648Z,85.90
2018-06-03T21:28:25.964Z,86.20
2018-06-03T21:30:56.312Z,85.60
2018-06-03T21:33:26.595Z,86.20
2018-06-03T21:35:56.872Z,86.80
2018-06-03T21:38:27.176Z,86.90
2018-06-03T21:40:57.508Z,87.30
2018-06-03T21:43:27.765Z,87.30
2018-06-03T21:45:58.100Z,87.60
2018-06-03T21:50:58.294Z,87.10
2018-06-03T21:53:28.576Z,86.50
2018-06-03T21:55:58.851Z,85.50
2018-06-03T21:58:29.172Z,85.60
2018-06-03T22:00:59.521Z,86.20
2018-06-03T22:03:29.807Z,86.00
2018-06-03T22:06:00.185Z,87.40
2018-06-03T22:13:30.490Z,88.20
2018-06-03T22:16:00.797Z,87.90
2018-06-03T22:18:31.095Z,88.10
2018-06-03T22:21:01.413Z,88.30
2018-06-03T22:23:31.751Z,88.40
2018-06-03T22:26:02.085Z,88.10
2018-06-03T22:28:32.361Z,88.00
2018-06-03T22:31:02.596Z,87.10
2018-06-03T22:36:02.784Z,87.80
2018-06-03T22:38:33.086Z,86.90
2018-06-03T22:41:03.444Z,87.30
2018-06-03T22:43:33.697Z,87.80
2018-06-03T22:46:04.069Z,87.90
2018-06-03T22:48:34.384Z,88.10
2018-06-03T22:51:04.685Z,88.50
2018-06-03T22:56:04.858Z,88.40
2018-06-03T22:58:35.161Z,88.10
2018-06-03T23:01:05.486Z,87.50
2018-06-03T23:03:35.797Z,87.60
2018-06-03T23:06:06.212Z,88.20
2018-06-03T23:08:36.491Z,88.70
2018-06-03T23:11:06.809Z,88.40
2018-06-03T23:13:37.252Z,88.70
2018-06-03T23:16:07.581Z,88.40
2018-06-03T23:18:37.836Z,87.90
2018-06-03T23:23:38.051Z,87.70
2018-06-03T23:26:08.407Z,87.60
2018-06-03T23:31:08.546Z,87.70
2018-06-03T23:33:38.835Z,87.70
2018-06-03T23:36:09.161Z,88.30
2018-06-03T23:38:39.456Z,88.60
2018-06-03T23:41:09.728Z,89.10
2018-06-03T23:43:40.004Z,89.40
2018-06-03T23:46:10.317Z,89.60
2018-06-03T23:48:40.561Z,89.50
2018-06-03T23:51:10.823Z,89.20
2018-06-03T23:56:10.997Z,87.90
2018-06-03T23:58:41.390Z,88.30
